Time;durP1;ratioP1;P1;durP2;ratioP2;P2;SDS_P1;SDS_P2;PMS_P1;PMS_P2;Temp;Humidity;BMP_temperature;BMP_pressure;BME280_temperature;BME280_humidity;BME280_pressure;Samples;Min_cycle;Max_cycle;Signal;HPM_P1;HPM_P2
2021/09/22 03:18:16;;;;;;;;;;;;;;;5.13;77.99;100854.50;5036697;28;19933;-79
2021/09/22 03:20:42;;;;;;;;;;;;;;;5.01;78.08;100850.16;5024363;28;19925;-86
2021/09/22 03:23:07;;;;;;;;;;;;;;;5.17;78.50;100848.34;5024639;28;19917;-80
2021/09/22 03:25:32;;;;;;;;;;;;;;;5.15;78.20;100847.47;5036625;28;19928;-79
2021/09/22 03:27:58;;;;;;;;;;;;;;;5.14;78.22;100845.75;5028925;28;19917;-80
2021/09/22 03:30:23;;;;;;;;;;;;;;;5.15;78.60;100841.34;5031481;28;19925;-79
2021/09/22 03:32:48;;;;;;;;;;;;;;;5.12;78.25;100834.34;5032739;28;19956;-87
2021/09/22 03:35:13;;;;;;;;;;;;;;;5.13;78.35;100825.59;5031206;28;20296;-85
2021/09/22 03:37:39;;;;;;;;;;;;;;;5.16;78.77;100829.97;5036896;28;19960;-91
2021/09/22 03:40:05;;;;;;;;;;;;;;;5.11;78.41;100830.00;5028159;28;20291;-80
2021/09/22 03:42:30;;;;;;;;;;;;;;;5.19;78.69;100838.72;5042393;28;19921;-83
2021/09/22 03:44:55;;;;;;;;;;;;;;;5.14;78.42;100844.84;5040609;28;19963;-79
2021/09/22 03:47:21;;;;;;;;;;;;;;;5.17;78.00;100839.59;5041721;28;19917;-81
2021/09/22 03:49:46;;;;;;;;;;;;;;;5.14;78.33;100840.50;5042469;28;19968;-81
2021/09/22 03:52:11;;;;;;;;;;;;;;;5.13;78.04;100838.72;5025321;28;19917;-81
2021/09/22 03:54:36;;;;;;;;;;;;;;;5.16;77.88;100833.47;5042001;28;19927;-80
2021/09/22 03:57:02;;;;;;;;;;;;;;;5.18;78.07;100836.94;5033016;28;19917;-80
2021/09/22 03:59:27;;;;;;;;;;;;;;;5.20;78.12;100835.22;5026128;28;20321;-80
2021/09/22 04:01:52;;;;;;;;;;;;;;;5.17;77.69;100834.31;5034421;28;19924;-80
2021/09/22 04:04:17;;;;;;;;;;;;;;;5.18;77.83;100833.47;5045770;28;19943;-87
2021/09/22 04:06:43;;;;;;;;;;;;;;;5.15;78.30;100833.47;5045521;28;19917;-80
2021/09/22 04:09:14;;;;;;;;;;;;;;;5.22;78.13;100837.84;5027878;28;19925;-80
2021/09/22 04:11:39;;;;;;;;;;;;;;;5.26;77.97;100839.56;5032726;28;19928;-80
2021/09/22 04:14:05;;;;;;;;;;;;;;;5.28;78.14;100840.41;5045195;28;19916;-79
2021/09/22 04:16:30;;;;;;;;;;;;;;;5.27;77.88;100841.31;5030174;28;20265;-87
2021/09/22 04:18:56;;;;;;;;;;;;;;;5.28;78.00;100838.69;5026878;28;19921;-80
2021/09/22 04:21:21;;;;;;;;;;;;;;;5.31;77.72;100834.28;5044920;28;19924;-80
2021/09/22 04:23:46;;;;;;;;;;;;;;;5.33;77.66;100835.13;5045944;28;19931;-80
2021/09/22 04:26:11;;;;;;;;;;;;;;;5.35;77.84;100844.78;5027753;28;19913;-87
2021/09/22 04:28:37;;;;;;;;;;;;;;;5.42;78.12;100846.47;5044907;28;20342;-81
2021/09/22 04:31:02;;;;;;;;;;;;;;;5.44;77.80;100849.09;5034436;28;19917;-80
2021/09/22 04:33:27;;;;;;;;;;;;;;;5.50;77.69;100849.06;5045044;28;19920;-80
2021/09/22 04:35:55;;;;;;;;;;;;;;;5.50;78.16;100849.06;5030395;28;19917;-84
2021/09/22 08:03:23;;;;;;;;;;;;;;;6.76;80.00;100856.94;5028290;28;19979;-92
2021/09/22 08:05:49;;;;;;;;;;;;;;;6.77;80.28;100861.34;5023668;28;19929;-85
2021/09/22 08:08:14;;;;;;;;;;;;;;;6.84;80.18;100863.00;5022517;28;19975;-84
2021/09/22 08:10:39;;;;;;;;;;;;;;;6.87;80.18;100868.25;5032613;28;19921;-81
2021/09/22 08:13:04;;;;;;;;;;;;;;;6.85;80.30;100864.75;5040669;28;19971;-92
2021/09/22 08:15:30;;;;;;;;;;;;;;;6.86;80.51;100869.13;5045954;28;19924;-90
2021/09/22 08:17:55;;;;;;;;;;;;;;;6.88;80.70;100868.22;5022874;28;19927;-87
2021/09/22 08:20:20;;;;;;;;;;;;;;;6.91;80.63;100867.34;5021974;28;19963;-83
2021/09/22 08:22:46;;;;;;;;;;;;;;;6.89;80.77;100869.97;5025529;28;19918;-92
2021/09/22 08:25:11;;;;;;;;;;;;;;;6.96;80.67;100868.16;5041912;28;19921;-87
2021/09/22 08:27:37;;;;;;;;;;;;;;;7.03;82.59;100872.44;5024455;28;20413;-91
2021/09/22 08:30:04;;;;;;;;;;;;;;;7.25;83.90;100873.09;5041777;28;19920;-90
2021/09/22 08:32:29;;;;;;;;;;;;;;;7.10;81.11;100873.28;5022850;28;19916;-82
2021/09/22 08:34:54;;;;;;;;;;;;;;;7.14;80.96;100872.34;5040449;28;20367;-85
2021/09/22 08:37:19;;;;;;;;;;;;;;;7.21;80.39;100876.66;5040824;28;19947;-86
2021/09/22 08:39:45;;;;;;;;;;;;;;;7.39;82.96;100870.28;5022035;28;20142;-90
2021/09/22 08:42:10;;;;;;;;;;;;;;;7.34;81.60;100876.50;5024730;28;20020;-90
2021/09/22 08:44:35;;;;;;;;;;;;;;;7.22;80.82;100874.88;5023471;28;19963;-90
2021/09/22 08:47:00;;;;;;;;;;;;;;;7.21;80.90;100873.13;5026798;28;19921;-86
2021/09/22 08:49:26;;;;;;;;;;;;;;;7.35;83.75;100884.38;5044387;28;19928;-84
2021/09/22 08:51:51;;;;;;;;;;;;;;;7.43;81.32;100877.25;5044718;28;19920;-89
2021/09/22 08:54:17;;;;;;;;;;;;;;;7.57;85.16;100870.94;5046215;28;19928;-90
2021/09/22 08:56:43;;;;;;;;;;;;;;;7.54;80.11;100877.13;5027115;28;19917;-91
2021/09/22 08:59:09;;;;;;;;;;;;;;;7.40;82.26;100885.22;5023963;28;20379;-90
2021/09/22 09:01:34;;;;;;;;;;;;;;;7.43;81.31;100882.53;5025324;28;19940;-80
2021/09/22 09:04:13;;;;;;;;;;;;;;;7.71;85.94;100876.91;5027063;28;19928;-82
2021/09/22 09:06:39;;;;;;;;;;;;;;;7.88;81.66;100873.16;5028970;28;20372;-82
2021/09/22 09:09:05;;;;;;;;;;;;;;;7.71;83.16;100871.63;5047114;28;19970;-85
2021/09/22 09:11:35;;;;;;;;;;;;;;;7.70;81.56;100864.59;5043208;28;20570;-85
2021/09/22 09:14:02;;;;;;;;;;;;;;;7.75;80.19;100873.31;5026208;28;20019;-86
2021/09/22 09:16:41;;;;;;;;;;;;;;;7.64;83.19;100873.47;5024942;28;19921;-85
2021/09/22 09:19:25;;;;;;;;;;;;;;;7.69;82.36;100876.06;5027169;28;20257;-82
2021/09/22 09:22:04;;;;;;;;;;;;;;;7.85;84.88;100875.81;5026554;28;19917;-86
2021/09/22 09:24:32;;;;;;;;;;;;;;;7.98;80.48;100874.78;5024395;28;20594;-89
2021/09/22 09:26:58;;;;;;;;;;;;;;;8.01;79.90;100874.72;5041761;28;19921;-87
2021/09/22 09:29:23;;;;;;;;;;;;;;;7.94;80.25;100878.34;5044793;28;19921;-81
2021/09/22 09:31:48;;;;;;;;;;;;;;;8.20;81.04;100880.59;5022622;28;19928;-81
2021/09/22 09:34:13;;;;;;;;;;;;;;;7.95;81.31;100874.81;5026314;28;20480;-89
2021/09/22 09:36:45;;;;;;;;;;;;;;;7.98;81.79;100873.00;5043399;28;20016;-87
2021/09/22 09:39:23;;;;;;;;;;;;;;;8.02;79.78;100871.19;5043962;28;20323;-82
2021/09/22 09:41:51;;;;;;;;;;;;;;;7.95;80.91;100872.19;5025832;28;19960;-81
2021/09/22 09:44:18;;;;;;;;;;;;;;;7.97;81.00;100860.69;5026424;28;19916;-89
2021/09/22 09:46:44;;;;;;;;;;;;;;;7.98;80.79;100856.28;5025742;28;19917;-81
2021/09/22 09:49:10;;;;;;;;;;;;;;;8.25;82.56;100859.38;5026575;28;19928;-89
2021/09/22 09:51:40;;;;;;;;;;;;;;;8.18;82.87;100851.59;5043804;28;19917;-81
2021/09/22 09:54:07;;;;;;;;;;;;;;;8.33;80.89;100852.22;5025872;28;19999;-81
2021/09/22 09:56:33;;;;;;;;;;;;;;;8.39;81.35;100852.09;5042885;28;19928;-89
2021/09/22 09:58:58;;;;;;;;;;;;;;;8.23;81.69;100854.13;5043451;28;19917;-87
2021/09/22 10:01:34;;;;;;;;;;;;;;;8.43;80.49;100850.31;5024275;28;20391;-89
2021/09/22 10:04:00;;;;;;;;;;;;;;;8.33;80.65;100850.44;5043307;28;20379;-81
2021/09/22 10:06:25;;;;;;;;;;;;;;;8.29;80.58;100845.25;5043264;28;19924;-87
2021/09/22 10:08:50;;;;;;;;;;;;;;;8.52;85.48;100840.47;5043104;28;19917;-89
2021/09/22 10:11:16;;;;;;;;;;;;;;;8.41;82.11;100842.41;5026051;28;19921;-80
2021/09/22 10:13:41;;;;;;;;;;;;;;;8.29;81.90;100839.97;5025262;28;19925;-83
2021/09/22 10:16:07;;;;;;;;;;;;;;;8.36;82.07;100834.56;5042074;28;20019;-81
2021/09/22 10:18:32;;;;;;;;;;;;;;;8.49;84.81;100834.38;5042838;28;19948;-87
2021/09/22 10:20:58;;;;;;;;;;;;;;;8.48;83.29;100828.22;5043333;28;20024;-86
2021/09/22 10:23:24;;;;;;;;;;;;;;;8.72;85.54;100826.03;5043653;28;20352;-88
2021/09/22 10:25:49;;;;;;;;;;;;;;;8.72;85.14;100824.25;5043727;28;19963;-82
2021/09/22 10:28:14;;;;;;;;;;;;;;;8.60;81.03;100813.94;5024892;28;19921;-81
2021/09/22 10:30:42;;;;;;;;;;;;;;;8.75;84.43;100818.03;5024196;28;19920;-87
2021/09/22 10:33:27;;;;;;;;;;;;;;;8.77;83.13;100810.94;5025904;28;19925;-86
2021/09/22 10:36:03;;;;;;;;;;;;;;;8.62;82.56;100813.91;5025388;28;19917;-88
2021/09/22 10:38:28;;;;;;;;;;;;;;;8.80;86.00;100813.53;5043400;28;20382;-89
2021/09/22 10:40:54;;;;;;;;;;;;;;;8.70;82.19;100810.19;5042982;28;20019;-89
2021/09/22 10:43:24;;;;;;;;;;;;;;;8.84;80.79;100807.31;5042747;28;20422;-82
2021/09/22 10:46:08;;;;;;;;;;;;;;;9.26;81.26;100799.38;5040501;28;19924;-82
2021/09/22 10:48:34;;;;;;;;;;;;;;;8.85;83.56;100802.88;5031892;28;19917;-84
2021/09/22 10:51:10;;;;;;;;;;;;;;;8.76;79.75;100801.31;5042285;28;19927;-82
2021/09/22 10:53:43;;;;;;;;;;;;;;;9.01;82.79;100799.03;5024583;28;19921;-86
2021/09/22 10:56:10;;;;;;;;;;;;;;;9.20;80.13;100796.00;5041610;28;20379;-81
2021/09/22 10:58:40;;;;;;;;;;;;;;;9.03;80.65;100789.31;5040128;28;20368;-85
2021/09/22 11:01:05;;;;;;;;;;;;;;;8.77;82.85;100786.31;5025656;28;20812;-85
2021/09/22 11:03:57;;;;;;;;;;;;;;;8.77;81.54;100787.16;5024017;28;19921;-92
2021/09/22 11:06:41;;;;;;;;;;;;;;;8.75;82.43;100786.34;5032714;28;19917;-95
2021/09/22 11:09:09;;;;;;;;;;;;;;;9.01;81.54;100780.50;5038013;28;19925;-86
2021/09/22 11:12:03;;;;;;;;;;;;;;;9.06;80.72;100776.03;5024753;28;20387;-82
2021/09/22 11:14:33;;;;;;;;;;;;;;;8.97;80.30;100768.28;5040219;28;20008;-90
2021/09/22 11:17:07;;;;;;;;;;;;;;;8.86;81.98;100773.78;5023984;28;19952;-89
2021/09/22 11:19:33;;;;;;;;;;;;;;;9.03;82.00;100770.81;5025676;28;19929;-85
2021/09/22 11:21:59;;;;;;;;;;;;;;;8.91;84.49;100768.41;5040028;28;19951;-89
2021/09/22 11:24:28;;;;;;;;;;;;;;;9.01;83.74;100758.50;5044614;28;19916;-94
2021/09/22 11:26:54;;;;;;;;;;;;;;;9.17;83.23;100757.25;5027717;28;19921;-91
2021/09/22 11:29:29;;;;;;;;;;;;;;;8.87;82.76;100761.41;5041795;28;19920;-92
2021/09/22 11:31:54;;;;;;;;;;;;;;;9.00;81.23;100751.47;5038950;28;19917;-92
2021/09/22 11:34:24;;;;;;;;;;;;;;;8.95;80.76;100748.94;5027671;28;19924;-85
2021/09/22 11:37:02;;;;;;;;;;;;;;;9.00;84.32;100759.41;5025068;28;20395;-88
2021/09/22 11:39:28;;;;;;;;;;;;;;;8.99;82.57;100757.69;5024221;28;19962;-90
2021/09/22 11:41:54;;;;;;;;;;;;;;;9.48;80.40;100756.59;5042549;28;20028;-82
2021/09/22 11:44:19;;;;;;;;;;;;;;;9.10;82.22;100753.03;5043996;28;19917;-91
2021/09/22 11:47:13;;;;;;;;;;;;;;;9.17;81.70;100757.25;5026681;28;20326;-91
2021/09/22 11:49:40;;;;;;;;;;;;;;;8.86;81.94;100747.34;5021916;28;20303;-89
2021/09/22 11:52:07;;;;;;;;;;;;;;;8.93;82.28;100747.22;5021830;28;19963;-93
2021/09/22 11:54:35;;;;;;;;;;;;;;;8.96;81.77;100744.53;5024829;28;19920;-83
2021/09/22 11:57:05;;;;;;;;;;;;;;;9.03;86.50;100746.13;5039286;28;19921;-83
2021/09/22 11:59:31;;;;;;;;;;;;;;;8.94;82.63;100730.47;5024638;28;19921;-94
2021/09/22 12:01:57;;;;;;;;;;;;;;;8.93;83.03;100734.00;5023680;28;19924;-92
2021/09/22 12:04:22;;;;;;;;;;;;;;;9.07;86.26;100737.22;5023418;28;19918;-82
2021/09/22 12:06:48;;;;;;;;;;;;;;;9.14;83.41;100727.38;5024456;28;19928;-83
2021/09/22 12:09:13;;;;;;;;;;;;;;;9.03;81.89;100725.84;5042298;28;19927;-81
2021/09/22 12:11:38;;;;;;;;;;;;;;;9.06;83.78;100722.25;5024378;28;19917;-90
2021/09/22 12:14:03;;;;;;;;;;;;;;;9.24;86.30;100719.22;5024401;28;19921;-93
2021/09/22 12:16:29;;;;;;;;;;;;;;;9.19;81.62;100720.22;5021656;28;19963;-91
2021/09/22 12:18:58;;;;;;;;;;;;;;;9.04;82.91;100724.94;5041560;28;20402;-81
2021/09/22 12:21:24;;;;;;;;;;;;;;;8.96;82.42;100707.50;5028796;28;19960;-82
2021/09/22 12:23:50;;;;;;;;;;;;;;;9.06;82.69;100707.28;5028281;28;19924;-89
2021/09/22 12:26:16;;;;;;;;;;;;;;;9.32;87.17;100704.94;5027666;28;19917;-82
2021/09/22 12:28:42;;;;;;;;;;;;;;;9.28;84.42;100704.16;5035108;28;19917;-82
2021/09/22 12:31:12;;;;;;;;;;;;;;;9.22;86.19;100704.28;5027114;28;19921;-90
2021/09/22 12:33:38;;;;;;;;;;;;;;;9.07;82.17;100700.22;5026643;28;19940;-88
2021/09/22 12:36:13;;;;;;;;;;;;;;;9.26;86.31;100693.59;5028100;28;20032;-88
2021/09/22 12:38:58;;;;;;;;;;;;;;;9.24;85.64;100687.47;5027348;28;19996;-85
2021/09/22 12:41:25;;;;;;;;;;;;;;;9.10;83.18;100689.56;5028227;28;19952;-91
2021/09/22 12:43:58;;;;;;;;;;;;;;;9.18;82.28;100686.75;5045487;28;20003;-81
2021/09/22 12:46:31;;;;;;;;;;;;;;;9.25;81.75;100680.41;5025638;28;19921;-85
2021/09/22 12:49:12;;;;;;;;;;;;;;;9.23;83.68;100671.66;5028570;28;20459;-92
2021/09/22 12:51:45;;;;;;;;;;;;;;;9.21;84.97;100668.19;5045364;28;19974;-91
2021/09/22 12:54:12;;;;;;;;;;;;;;;9.35;85.71;100674.03;5045368;28;19917;-92
2021/09/22 12:56:38;;;;;;;;;;;;;;;9.25;82.85;100665.44;5027148;28;19927;-81
2021/09/22 12:59:31;;;;;;;;;;;;;;;9.27;83.70;100654.81;5042253;28;20339;-93
2021/09/22 13:01:57;;;;;;;;;;;;;;;9.44;82.51;100646.47;5023872;28;20291;-83
2021/09/22 13:04:26;;;;;;;;;;;;;;;9.24;84.20;100650.47;5026968;28;20047;-81
2021/09/22 13:06:55;;;;;;;;;;;;;;;9.24;84.05;100647.81;5044891;28;20395;-89
2021/09/22 13:09:30;;;;;;;;;;;;;;;9.38;82.01;100647.50;5043720;28;19982;-93
2021/09/22 13:11:55;;;;;;;;;;;;;;;9.39;85.03;100632.47;5042933;28;19928;-82
2021/09/22 13:14:20;;;;;;;;;;;;;;;9.61;86.10;100632.81;5026536;28;19916;-92
2021/09/22 13:16:54;;;;;;;;;;;;;;;9.72;86.76;100637.84;5025483;28;19917;-87
2021/09/22 13:19:20;;;;;;;;;;;;;;;9.37;84.38;100623.72;5026251;28;19921;-85
2021/09/22 13:21:46;;;;;;;;;;;;;;;9.37;83.38;100621.94;5028007;28;19939;-94
2021/09/22 13:24:13;;;;;;;;;;;;;;;9.39;85.98;100621.91;5035110;28;19925;-92
2021/09/22 13:26:40;;;;;;;;;;;;;;;9.34;83.88;100623.81;5026768;28;19917;-82
2021/09/22 13:29:06;;;;;;;;;;;;;;;9.44;82.31;100609.44;5028006;28;19921;-81
2021/09/22 13:31:41;;;;;;;;;;;;;;;9.35;82.14;100610.53;5025257;28;20059;-86
2021/09/22 13:34:07;;;;;;;;;;;;;;;9.27;82.85;100610.72;5033984;28;19920;-94
2021/09/22 13:36:32;;;;;;;;;;;;;;;9.20;82.29;100603.81;5026743;28;19917;-81
2021/09/22 13:38:58;;;;;;;;;;;;;;;9.65;88.25;100608.00;5026173;28;20368;-88
2021/09/22 13:41:23;;;;;;;;;;;;;;;9.51;84.93;100605.72;5026057;28;20044;-82
2021/09/22 13:43:50;;;;;;;;;;;;;;;9.43;84.06;100597.13;5026475;28;19920;-85
2021/09/22 13:46:17;;;;;;;;;;;;;;;9.38;83.00;100599.00;5025005;28;19925;-82
2021/09/22 13:48:43;;;;;;;;;;;;;;;9.48;86.85;100607.56;5044976;28;20283;-82
2021/09/22 13:51:08;;;;;;;;;;;;;;;9.38;83.92;100599.00;5026051;28;19929;-83
2021/09/22 13:53:33;;;;;;;;;;;;;;;9.65;82.98;100602.72;5044008;28;19917;-84
2021/09/22 13:55:59;;;;;;;;;;;;;;;9.73;80.89;100603.41;5026005;28;19964;-82
2021/09/22 13:58:25;;;;;;;;;;;;;;;9.49;83.96;100601.38;5026119;28;19924;-93
2021/09/22 14:00:50;;;;;;;;;;;;;;;9.52;83.78;100596.88;5025290;28;19978;-94
2021/09/22 14:03:16;;;;;;;;;;;;;;;9.57;87.40;100596.75;5026070;28;19953;-82
2021/09/22 14:05:41;;;;;;;;;;;;;;;9.56;85.99;100598.53;5025350;28;19920;-92
2021/09/22 14:08:08;;;;;;;;;;;;;;;9.47;85.16;100598.78;5023895;28;20206;-91
2021/09/22 14:10:35;;;;;;;;;;;;;;;9.41;83.16;100593.63;5026314;28;19972;-81
2021/09/22 14:13:00;;;;;;;;;;;;;;;9.50;86.68;100588.13;5025648;28;19920;-88
2021/09/22 14:15:45;;;;;;;;;;;;;;;9.44;83.33;100582.97;5025500;28;19967;-91
2021/09/22 14:18:11;;;;;;;;;;;;;;;9.39;86.53;100580.44;5042735;28;20352;-83
2021/09/22 14:20:39;;;;;;;;;;;;;;;9.69;86.30;100572.63;5034431;28;19967;-86
2021/09/22 14:23:05;;;;;;;;;;;;;;;9.58;83.40;100583.47;5024823;28;20027;-85
2021/09/22 14:25:31;;;;;;;;;;;;;;;9.68;84.85;100583.25;5025544;28;20442;-91
2021/09/22 14:27:57;;;;;;;;;;;;;;;9.73;83.62;100576.94;5042516;28;19917;-84
2021/09/22 14:30:23;;;;;;;;;;;;;;;9.66;84.95;100572.72;5025472;28;19921;-85
2021/09/22 14:32:48;;;;;;;;;;;;;;;9.70;85.32;100568.19;5025871;28;19924;-82
2021/09/22 14:35:14;;;;;;;;;;;;;;;9.68;84.97;100575.31;5025326;28;19918;-82
2021/09/22 14:37:40;;;;;;;;;;;;;;;9.75;83.78;100571.59;5025340;28;19921;-93
2021/09/22 14:40:06;;;;;;;;;;;;;;;9.65;82.95;100565.66;5025095;28;19931;-92
2021/09/22 14:42:32;;;;;;;;;;;;;;;9.58;83.75;100566.75;5025306;28;20011;-93
2021/09/22 14:44:57;;;;;;;;;;;;;;;9.60;83.58;100562.28;5033393;28;20007;-83
2021/09/22 14:47:22;;;;;;;;;;;;;;;9.64;85.62;100564.81;5024404;28;19944;-89
2021/09/22 14:49:48;;;;;;;;;;;;;;;10.09;88.46;100555.63;5025564;28;19946;-83
2021/09/22 14:52:13;;;;;;;;;;;;;;;9.86;85.05;100553.66;5025641;28;19960;-83
2021/09/22 14:54:38;;;;;;;;;;;;;;;9.63;84.57;100549.81;5025051;28;19921;-82
2021/09/22 14:57:04;;;;;;;;;;;;;;;9.63;86.20;100547.19;5025426;28;20019;-87
2021/09/22 14:59:29;;;;;;;;;;;;;;;9.82;87.51;100550.19;5024997;28;19917;-92
2021/09/22 15:01:55;;;;;;;;;;;;;;;9.88;86.94;100549.19;5040235;28;19924;-85
2021/09/22 15:04:20;;;;;;;;;;;;;;;9.73;84.16;100536.34;5042755;28;19920;-84
2021/09/22 15:06:46;;;;;;;;;;;;;;;9.68;84.07;100530.31;5042648;28;19917;-86
2021/09/22 15:09:11;;;;;;;;;;;;;;;9.60;83.72;100531.38;5041790;28;19916;-85
2021/09/22 15:11:36;;;;;;;;;;;;;;;9.61;82.96;100522.56;5041769;28;19921;-82
2021/09/22 15:14:02;;;;;;;;;;;;;;;9.59;84.13;100534.97;5042724;28;19927;-83
2021/09/22 15:16:27;;;;;;;;;;;;;;;9.82;85.18;100528.16;5041200;28;20284;-81
2021/09/22 15:18:52;;;;;;;;;;;;;;;9.71;86.12;100523.16;5042461;28;19917;-87
2021/09/22 15:21:18;;;;;;;;;;;;;;;9.61;84.48;100522.56;5042118;28;19924;-82
2021/09/22 15:23:43;;;;;;;;;;;;;;;9.78;85.24;100511.50;5042243;28;20717;-85
2021/09/22 15:26:08;;;;;;;;;;;;;;;9.89;87.60;100521.81;5042331;28;19921;-81
2021/09/22 15:28:33;;;;;;;;;;;;;;;9.90;85.21;100520.88;5041844;28;19987;-84
2021/09/22 15:30:59;;;;;;;;;;;;;;;9.73;86.75;100509.88;5039954;28;19921;-87
2021/09/22 15:33:24;;;;;;;;;;;;;;;9.76;84.52;100515.97;5024623;28;20368;-89
2021/09/22 15:35:49;;;;;;;;;;;;;;;9.85;87.19;100514.00;5022932;28;20011;-86
2021/09/22 15:38:14;;;;;;;;;;;;;;;9.87;85.71;100507.72;5041495;28;19928;-90
2021/09/22 15:40:40;;;;;;;;;;;;;;;9.89;83.33;100505.03;5041494;28;19978;-90
2021/09/22 15:43:05;;;;;;;;;;;;;;;9.79;83.27;100507.06;5042430;28;20438;-91
2021/09/22 15:45:34;;;;;;;;;;;;;;;9.69;84.79;100508.25;5024168;28;19916;-87
2021/09/22 15:48:00;;;;;;;;;;;;;;;9.83;85.82;100511.38;5022230;28;19931;-85
2021/09/22 15:50:26;;;;;;;;;;;;;;;9.94;84.52;100501.34;5023226;28;19917;-85
2021/09/22 15:52:51;;;;;;;;;;;;;;;9.78;83.86;100505.31;5024070;28;19917;-82
2021/09/22 15:55:17;;;;;;;;;;;;;;;9.86;86.29;100498.06;5027233;28;19925;-85
2021/09/22 15:57:42;;;;;;;;;;;;;;;9.75;84.32;100508.09;5029744;28;19917;-90
2021/09/22 16:00:09;;;;;;;;;;;;;;;9.74;84.47;100503.69;5028130;28;19966;-90
2021/09/22 16:02:35;;;;;;;;;;;;;;;9.86;86.44;100503.38;5031462;28;19921;-86
2021/09/22 16:05:00;;;;;;;;;;;;;;;9.95;85.04;100495.13;5024361;28;20067;-84
2021/09/22 16:07:26;;;;;;;;;;;;;;;9.89;86.06;100499.75;5025557;28;20012;-82
2021/09/22 16:09:52;;;;;;;;;;;;;;;9.82;87.09;100501.69;5026170;28;19924;-88
2021/09/22 16:12:17;;;;;;;;;;;;;;;9.77;84.88;100496.53;5020368;28;20347;-88
2021/09/22 16:14:42;;;;;;;;;;;;;;;9.85;85.04;100495.47;5025151;28;19924;-90
2021/09/22 16:17:08;;;;;;;;;;;;;;;9.83;85.71;100495.50;5014531;28;19926;-90
2021/09/22 16:19:35;;;;;;;;;;;;;;;9.86;85.47;100494.53;5016361;28;19924;-89
2021/09/22 16:22:01;;;;;;;;;;;;;;;9.82;84.04;100489.31;5022123;28;19921;-87
2021/09/22 16:24:26;;;;;;;;;;;;;;;9.70;83.70;100486.16;5013962;28;19918;-89
2021/09/22 16:26:51;;;;;;;;;;;;;;;9.96;86.67;100483.63;5022743;28;19917;-89
2021/09/22 16:29:17;;;;;;;;;;;;;;;9.89;84.74;100483.84;5030733;28;19968;-86
2021/09/22 16:31:42;;;;;;;;;;;;;;;9.84;85.38;100484.00;5030130;28;19917;-82
2021/09/22 16:34:08;;;;;;;;;;;;;;;9.97;87.86;100485.38;5014812;28;19964;-86
2021/09/22 16:36:34;;;;;;;;;;;;;;;9.86;84.41;100483.94;5014708;28;19937;-90
2021/09/22 16:38:59;;;;;;;;;;;;;;;9.77;83.69;100490.38;5016174;28;20348;-88
2021/09/22 16:41:24;;;;;;;;;;;;;;;9.71;84.08;100486.13;5031200;28;19917;-88
2021/09/22 16:43:49;;;;;;;;;;;;;;;9.66;84.22;100492.47;5031382;28;19923;-89
2021/09/22 16:46:15;;;;;;;;;;;;;;;9.78;83.92;100490.34;5029965;28;19971;-83
2021/09/22 16:48:40;;;;;;;;;;;;;;;9.71;83.93;100485.25;5015419;28;20391;-88
2021/09/22 16:51:06;;;;;;;;;;;;;;;9.71;83.43;100479.97;5030615;28;19917;-89
2021/09/22 16:53:31;;;;;;;;;;;;;;;9.79;83.48;100483.25;5022504;28;19921;-90
2021/09/22 16:55:56;;;;;;;;;;;;;;;9.71;83.70;100483.47;5030595;28;20020;-90
2021/09/22 16:58:22;;;;;;;;;;;;;;;9.84;83.66;100484.00;5030565;28;19980;-84
2021/09/22 17:00:47;;;;;;;;;;;;;;;9.68;83.89;100480.06;5020198;28;19922;-87
2021/09/22 17:03:13;;;;;;;;;;;;;;;9.75;83.68;100481.63;5025763;28;19921;-87
2021/09/22 17:05:38;;;;;;;;;;;;;;;9.69;83.70;100480.00;5033112;28;19917;-87
2021/09/22 17:08:04;;;;;;;;;;;;;;;9.81;83.42;100486.72;5033427;28;19925;-84
2021/09/22 17:10:31;;;;;;;;;;;;;;;9.85;83.08;100477.78;5016860;28;19948;-87
2021/09/22 17:12:56;;;;;;;;;;;;;;;9.74;83.19;100487.81;5033288;28;20479;-83
2021/09/22 17:15:22;;;;;;;;;;;;;;;9.75;83.43;100485.13;5017004;28;20069;-90
2021/09/22 17:17:47;;;;;;;;;;;;;;;11.30;80.44;100481.19;5033382;28;19925;-82
2021/09/22 17:20:12;;;;;;;;;;;;;;;10.17;84.65;100482.13;5016877;28;19917;-86
2021/09/22 17:22:38;;;;;;;;;;;;;;;9.95;87.73;100486.31;5024739;28;20027;-82
2021/09/22 17:25:04;;;;;;;;;;;;;;;9.85;88.36;100491.03;5016154;28;20021;-89
2021/09/22 17:27:29;;;;;;;;;;;;;;;9.82;87.68;100493.75;5033087;28;20371;-87
2021/09/22 17:29:54;;;;;;;;;;;;;;;9.72;87.22;100487.84;5033112;28;19921;-83
2021/09/22 17:32:19;;;;;;;;;;;;;;;9.59;86.67;100487.34;5015321;28;19920;-89
2021/09/22 17:34:45;;;;;;;;;;;;;;;9.35;87.48;100490.63;5016452;28;19957;-83
2021/09/22 17:37:11;;;;;;;;;;;;;;;9.11;88.27;100495.69;5032605;28;20292;-82
2021/09/22 17:39:37;;;;;;;;;;;;;;;8.97;88.40;100493.38;5032693;28;19936;-87
2021/09/22 17:42:02;;;;;;;;;;;;;;;8.93;89.57;100496.97;5032812;28;19921;-83
2021/09/22 17:44:29;;;;;;;;;;;;;;;8.86;91.59;100491.00;5032918;28;19921;-82
2021/09/22 17:46:54;;;;;;;;;;;;;;;8.81;94.91;100484.94;5031529;28;19921;-82
2021/09/22 17:49:20;;;;;;;;;;;;;;;8.66;97.29;100485.31;5016239;28;20007;-82
2021/09/22 17:51:45;;;;;;;;;;;;;;;8.60;98.97;100483.69;5031631;28;19924;-82
2021/09/22 17:54:11;;;;;;;;;;;;;;;8.50;100.00;100492.72;5032618;28;20365;-88
2021/09/22 17:56:37;;;;;;;;;;;;;;;8.48;100.00;100489.25;5032697;28;19975;-81
2021/09/22 17:59:02;;;;;;;;;;;;;;;8.68;100.00;100483.50;5024194;28;19921;-81
2021/09/22 18:01:27;;;;;;;;;;;;;;;9.13;100.00;100487.72;5032559;28;19932;-88
2021/09/22 18:03:54;;;;;;;;;;;;;;;9.44;100.00;100482.47;5023787;28;19933;-80
2021/09/22 18:06:22;;;;;;;;;;;;;;;9.77;100.00;100485.09;5029181;28;19961;-81
2021/09/22 18:08:48;;;;;;;;;;;;;;;9.89;100.00;100483.84;5022806;28;19932;-83
2021/09/22 18:11:15;;;;;;;;;;;;;;;10.05;100.00;100478.97;5013476;28;19922;-85
2021/09/22 18:13:40;;;;;;;;;;;;;;;10.16;100.00;100476.88;5013750;28;19922;-86
2021/09/22 18:16:05;;;;;;;;;;;;;;;10.27;100.00;100485.34;5026493;28;20388;-88
2021/09/22 18:18:31;;;;;;;;;;;;;;;10.35;100.00;100483.41;5011486;28;19925;-81
2021/09/22 18:20:58;;;;;;;;;;;;;;;10.42;100.00;100480.53;5013432;28;19971;-83
2021/09/22 18:23:23;;;;;;;;;;;;;;;10.43;100.00;100475.19;5013326;28;20452;-81
2021/09/22 18:25:48;;;;;;;;;;;;;;;10.53;100.00;100475.78;5028540;28;20012;-80
2021/09/22 18:28:14;;;;;;;;;;;;;;;10.65;100.00;100471.88;5013356;28;19925;-81
2021/09/22 18:30:39;;;;;;;;;;;;;;;10.66;100.00;100476.28;5027922;28;19965;-82
2021/09/22 18:33:05;;;;;;;;;;;;;;;10.64;100.00;100468.38;5011235;28;19955;-85
2021/09/22 18:35:31;;;;;;;;;;;;;;;10.73;100.00;100473.34;5011747;28;19921;-83
2021/09/22 18:37:56;;;;;;;;;;;;;;;10.76;100.00;100471.53;5028420;28;20306;-86
2021/09/22 18:40:22;;;;;;;;;;;;;;;10.79;100.00;100479.38;5011887;28;20345;-84
2021/09/22 18:42:48;;;;;;;;;;;;;;;10.84;100.00;100480.09;5006717;28;19922;-88
2021/09/22 18:45:14;;;;;;;;;;;;;;;10.85;100.00;100477.41;5009902;28;19967;-81
2021/09/22 18:47:40;;;;;;;;;;;;;;;10.89;100.00;100484.31;5010536;28;19925;-82
2021/09/22 18:50:06;;;;;;;;;;;;;;;10.96;100.00;100476.16;5011563;28;19917;-85
2021/09/22 18:52:31;;;;;;;;;;;;;;;10.98;100.00;100483.16;5012938;28;19924;-82
2021/09/22 18:54:56;;;;;;;;;;;;;;;10.98;100.00;100483.16;5011613;28;19917;-86
2021/09/22 18:57:22;;;;;;;;;;;;;;;11.07;100.00;100487.28;5011673;28;19921;-85
2021/09/22 18:59:48;;;;;;;;;;;;;;;11.06;100.00;100486.41;5011239;28;20016;-82
2021/09/22 19:02:14;;;;;;;;;;;;;;;11.08;100.00;100478.41;5009981;28;19943;-87
2021/09/22 19:04:40;;;;;;;;;;;;;;;11.09;100.00;100481.00;5010796;28;20412;-84
2021/09/22 19:07:10;;;;;;;;;;;;;;;11.13;100.00;100481.75;5027715;28;20254;-81
2021/09/22 19:09:35;;;;;;;;;;;;;;;11.18;100.00;100489.56;5011480;28;20308;-82
2021/09/22 19:12:01;;;;;;;;;;;;;;;11.21;100.00;100489.47;5021921;28;19924;-86
2021/09/22 19:14:26;;;;;;;;;;;;;;;11.23;100.00;100487.59;5027729;28;19917;-88
2021/09/22 19:16:52;;;;;;;;;;;;;;;11.25;100.00;100485.78;5010027;28;19928;-81
2021/09/22 19:19:18;;;;;;;;;;;;;;;11.18;100.00;100492.22;5006682;28;19917;-84
2021/09/22 19:21:43;;;;;;;;;;;;;;;11.25;100.00;100488.44;5005978;28;20033;-87
2021/09/22 19:24:09;;;;;;;;;;;;;;;11.28;100.00;100491.00;5006681;28;19930;-82
2021/09/22 19:26:34;;;;;;;;;;;;;;;11.28;100.00;100488.34;5011241;28;19927;-85